Time;durP1;ratioP1;P1;durP2;ratioP2;P2;SDS_P1;SDS_P2;PMS_P1;PMS_P2;Temp;Humidity;BMP_temperature;BMP_pressure;BME280_temperature;BME280_humidity;BME280_pressure;Samples;Min_cycle;Max_cycle;Signal;HPM_P1;HPM_P2
2022/08/04 00:01:45;;;;;;;7.85;2.20;;;;;;;;;;5019470;28;20034;-67
2022/08/04 00:04:27;;;;;;;8.20;1.88;;;;;;;;;;5014121;28;20041;-69
2022/08/04 00:07:03;;;;;;;11.55;2.00;;;;;;;;;;5013344;28;20475;-69
2022/08/04 00:09:31;;;;;;;7.95;2.10;;;;;;;;;;5017928;28;20066;-69
2022/08/04 00:12:01;;;;;;;7.10;1.92;;;;;;;;;;5020174;28;20120;-69
2022/08/04 00:14:31;;;;;;;9.63;2.03;;;;;;;;;;5013195;28;20048;-69
2022/08/04 00:16:56;;;;;;;8.95;2.35;;;;;;;;;;5013321;28;20305;-69
2022/08/04 00:19:28;;;;;;;10.90;2.38;;;;;;;;;;5022932;28;20041;-69
2022/08/04 00:21:59;;;;;;;7.32;2.30;;;;;;;;;;4995668;28;20065;-68
2022/08/04 00:24:25;;;;;;;6.85;2.25;;;;;;;;;;5022159;28;20112;-69
2022/08/04 00:26:52;;;;;;;4.60;2.20;;;;;;;;;;5011433;28;20109;-68
2022/08/04 00:29:19;;;;;;;8.85;2.20;;;;;;;;;;5004331;28;20112;-68
2022/08/04 00:31:45;;;;;;;7.18;2.15;;;;;;;;;;5023277;28;20125;-69
2022/08/04 00:34:12;;;;;;;9.20;2.40;;;;;;;;;;5016136;28;20080;-69
2022/08/04 00:36:39;;;;;;;9.23;2.47;;;;;;;;;;5017018;28;20113;-68
2022/08/04 00:39:10;;;;;;;10.38;2.28;;;;;;;;;;5012397;28;20125;-68
2022/08/04 00:42:12;;;;;;;8.70;2.30;;;;;;;;;;5020767;28;20553;-68
2022/08/04 00:44:51;;;;;;;14.57;3.08;;;;;;;;;;5021287;28;20049;-69
2022/08/04 00:47:43;;;;;;;10.98;2.83;;;;;;;;;;5028995;28;20041;-69
2022/08/04 00:50:15;;;;;;;12.48;3.28;;;;;;;;;;5025572;28;20038;-69
2022/08/04 00:52:46;;;;;;;9.55;3.10;;;;;;;;;;5013642;28;20061;-68
2022/08/04 00:55:20;;;;;;;14.77;3.60;;;;;;;;;;5018831;28;20528;-68
2022/08/04 00:58:01;;;;;;;11.38;3.25;;;;;;;;;;5037386;28;20049;-71
2022/08/04 01:00:31;;;;;;;8.30;2.85;;;;;;;;;;5032136;28;20039;-68
2022/08/04 01:03:00;;;;;;;10.63;3.08;;;;;;;;;;5016094;28;20068;-68
2022/08/04 01:05:40;;;;;;;10.23;3.22;;;;;;;;;;5039061;28;20046;-68
2022/08/04 01:08:26;;;;;;;10.85;2.80;;;;;;;;;;5043830;28;20395;-68
2022/08/04 01:11:12;;;;;;;11.48;3.38;;;;;;;;;;5031226;28;20103;-68
2022/08/04 01:14:23;;;;;;;10.18;3.40;;;;;;;;;;5013429;28;20128;-68
2022/08/04 01:16:55;;;;;;;18.38;3.08;;;;;;;;;;4985419;28;20043;-69
2022/08/04 01:19:53;;;;;;;9.25;2.95;;;;;;;;;;5041816;28;20478;-69
2022/08/04 01:22:30;;;;;;;10.80;3.42;;;;;;;;;;5032409;28;20433;-69
2022/08/04 01:25:13;;;;;;;12.45;3.50;;;;;;;;;;5030249;28;20068;-69
2022/08/04 01:28:03;;;;;;;11.45;3.70;;;;;;;;;;5015317;28;20060;-67
2022/08/04 01:30:31;;;;;;;11.07;3.92;;;;;;;;;;5027408;28;20055;-69
2022/08/04 01:33:07;;;;;;;11.75;3.40;;;;;;;;;;5040384;28;20033;-69
2022/08/04 01:35:49;;;;;;;14.07;3.63;;;;;;;;;;5042418;28;20536;-67
2022/08/04 01:38:23;;;;;;;12.30;3.70;;;;;;;;;;5031306;28;20100;-69
2022/08/04 01:40:56;;;;;;;10.55;3.33;;;;;;;;;;5031044;28;20031;-69
2022/08/04 01:43:22;;;;;;;13.25;3.88;;;;;;;;;;5027840;28;20040;-69
2022/08/04 01:45:49;;;;;;;12.63;3.80;;;;;;;;;;5050383;28;20172;-71
2022/08/04 01:48:17;;;;;;;12.88;3.38;;;;;;;;;;5037931;28;20045;-69
2022/08/04 01:50:44;;;;;;;11.93;3.60;;;;;;;;;;5031893;28;20034;-69
2022/08/04 01:53:10;;;;;;;11.48;3.45;;;;;;;;;;5034954;28;20037;-68
2022/08/04 01:55:36;;;;;;;12.50;3.60;;;;;;;;;;5040774;28;20112;-69
2022/08/04 01:58:04;;;;;;;9.95;3.42;;;;;;;;;;5044570;28;20041;-69
2022/08/04 02:00:30;;;;;;;14.77;3.30;;;;;;;;;;5033071;28;20041;-69
2022/08/04 02:02:56;;;;;;;15.60;3.10;;;;;;;;;;5030022;28;20363;-69
2022/08/04 02:05:24;;;;;;;9.95;3.03;;;;;;;;;;5042728;28;20044;-68
2022/08/04 02:08:08;;;;;;;7.93;3.10;;;;;;;;;;5030124;28;20041;-70
2022/08/04 02:10:52;;;;;;;9.93;3.05;;;;;;;;;;5036404;28;20386;-67
2022/08/04 02:13:17;;;;;;;8.30;3.08;;;;;;;;;;5031721;28;20100;-70
2022/08/04 02:16:00;;;;;;;9.45;2.80;;;;;;;;;;5031580;28;20029;-71
2022/08/04 02:18:57;;;;;;;13.10;2.95;;;;;;;;;;5036643;28;20060;-67
2022/08/04 02:21:24;;;;;;;11.70;3.33;;;;;;;;;;5031182;28;20033;-67
2022/08/04 02:23:57;;;;;;;14.98;3.45;;;;;;;;;;5030138;28;20113;-70
2022/08/04 02:26:27;;;;;;;15.70;3.80;;;;;;;;;;5038111;28;20118;-68
2022/08/04 02:29:06;;;;;;;9.77;3.20;;;;;;;;;;5044640;28;20984;-69
2022/08/04 02:31:57;;;;;;;12.38;3.90;;;;;;;;;;5019688;28;20026;-68
2022/08/04 02:34:49;;;;;;;13.38;3.45;;;;;;;;;;5035112;28;20029;-68
2022/08/04 02:37:17;;;;;;;12.75;3.42;;;;;;;;;;5028890;28;20029;-68
2022/08/04 02:39:44;;;;;;;11.63;3.65;;;;;;;;;;5031735;28;20029;-67
2022/08/04 02:42:12;;;;;;;18.70;3.80;;;;;;;;;;5038772;28;20474;-68
2022/08/04 02:44:38;;;;;;;9.40;3.25;;;;;;;;;;5036615;28;20028;-68
2022/08/04 02:47:05;;;;;;;9.80;3.10;;;;;;;;;;5038097;28;20116;-68
2022/08/04 02:49:35;;;;;;;14.68;3.70;;;;;;;;;;5050386;28;20155;-68
2022/08/04 02:52:02;;;;;;;12.45;3.65;;;;;;;;;;5046605;28;20053;-68
2022/08/04 02:54:33;;;;;;;11.95;3.40;;;;;;;;;;5037189;28;20056;-68
2022/08/04 02:57:00;;;;;;;12.48;3.75;;;;;;;;;;5027733;28;20069;-69
2022/08/04 02:59:34;;;;;;;11.23;3.78;;;;;;;;;;5013997;28;20033;-69
2022/08/04 03:01:59;;;;;;;11.25;3.65;;;;;;;;;;5032117;28;20031;-69
2022/08/04 03:04:39;;;;;;;16.92;3.70;;;;;;;;;;5047807;28;20375;-68
2022/08/04 03:07:35;;;;;;;10.70;3.70;;;;;;;;;;5026415;28;20037;-69
2022/08/04 03:10:06;;;;;;;10.15;3.75;;;;;;;;;;5030591;28;20254;-69
2022/08/04 03:12:46;;;;;;;13.57;4.03;;;;;;;;;;5042670;28;20449;-69
2022/08/04 03:15:29;;;;;;;10.38;3.92;;;;;;;;;;5030159;28;20327;-69
2022/08/04 03:18:31;;;;;;;12.95;4.13;;;;;;;;;;5017579;28;20149;-69
2022/08/04 03:21:33;;;;;;;15.63;4.22;;;;;;;;;;5041963;28;20021;-68
2022/08/04 03:24:11;;;;;;;11.68;3.97;;;;;;;;;;5031534;28;20038;-69
2022/08/04 03:26:57;;;;;;;11.30;3.60;;;;;;;;;;5030874;28;20086;-68
2022/08/04 03:30:02;;;;;;;12.90;4.50;;;;;;;;;;5030549;28;20338;-68
2022/08/04 03:33:10;;;;;;;10.73;4.10;;;;;;;;;;5050847;28;20120;-68
2022/08/04 03:36:07;;;;;;;9.10;3.80;;;;;;;;;;5048987;28;20033;-69
2022/08/04 03:39:00;;;;;;;10.40;4.43;;;;;;;;;;5042318;28;20067;-69
2022/08/04 03:41:57;;;;;;;12.88;4.10;;;;;;;;;;5034293;28;20417;-68
2022/08/04 03:45:02;;;;;;;11.13;4.57;;;;;;;;;;5034848;28;20103;-68
2022/08/04 03:48:12;;;;;;;9.68;4.45;;;;;;;;;;5042241;28;20021;-68
2022/08/04 03:50:40;;;;;;;13.50;4.55;;;;;;;;;;5049459;28;20730;-68
2022/08/04 03:53:29;;;;;;;12.70;4.55;;;;;;;;;;5051625;28;20029;-68
2022/08/04 03:56:12;;;;;;;9.57;4.60;;;;;;;;;;5034300;28;20030;-70
2022/08/04 03:59:05;;;;;;;12.50;4.70;;;;;;;;;;5036310;28;20041;-68
2022/08/04 04:01:50;;;;;;;11.32;4.70;;;;;;;;;;5052981;28;20374;-68
2022/08/04 04:04:21;;;;;;;13.73;4.75;;;;;;;;;;5036333;28;20036;-69
2022/08/04 04:07:05;;;;;;;15.85;4.93;;;;;;;;;;5037716;28;20448;-68
2022/08/04 04:10:09;;;;;;;11.77;4.47;;;;;;;;;;5025535;28;20044;-67
2022/08/04 04:12:59;;;;;;;11.95;5.03;;;;;;;;;;5034040;28;20040;-67
2022/08/04 04:15:35;;;;;;;10.45;4.60;;;;;;;;;;5044041;28;20056;-67
2022/08/04 04:18:30;;;;;;;11.05;4.63;;;;;;;;;;5048437;28;20044;-69
2022/08/04 04:21:25;;;;;;;11.27;4.85;;;;;;;;;;5043726;28;20058;-70
2022/08/04 04:23:59;;;;;;;13.45;4.78;;;;;;;;;;5043370;28;20037;-67
2022/08/04 04:26:47;;;;;;;11.93;4.53;;;;;;;;;;5031075;28;20056;-68
2022/08/04 04:29:43;;;;;;;11.68;4.65;;;;;;;;;;5041963;28;20044;-68
2022/08/04 04:32:18;;;;;;;11.40;4.28;;;;;;;;;;5023729;28;21241;-69
2022/08/04 04:34:49;;;;;;;11.75;4.35;;;;;;;;;;5032944;28;20041;-67
2022/08/04 04:37:32;;;;;;;11.00;4.35;;;;;;;;;;5035810;28;20562;-68
2022/08/04 04:40:11;;;;;;;9.45;4.43;;;;;;;;;;5032095;28;20496;-71
2022/08/04 04:43:04;;;;;;;11.55;4.90;;;;;;;;;;5033915;28;20041;-68
2022/08/04 04:45:39;;;;;;;10.45;4.80;;;;;;;;;;5031383;28;20108;-69
2022/08/04 04:48:35;;;;;;;11.95;4.70;;;;;;;;;;5048026;28;20039;-68
2022/08/04 04:51:14;;;;;;;11.63;4.97;;;;;;;;;;5046642;28;20139;-68
2022/08/04 04:53:54;;;;;;;14.25;4.72;;;;;;;;;;5043759;28;20083;-68
2022/08/04 04:56:20;;;;;;;;;;;;;;;;;;5041154;28;20128;-68
2022/08/04 04:58:46;;;;;;;13.57;4.95;;;;;;;;;;5047701;28;20036;-68
2022/08/04 05:01:15;;;;;;;10.15;4.80;;;;;;;;;;5041231;28;20021;-68
2022/08/04 05:03:47;;;;;;;11.45;5.22;;;;;;;;;;5052672;28;20033;-68
2022/08/04 05:06:25;;;;;;;13.32;5.28;;;;;;;;;;5051922;28;20489;-68
2022/08/04 05:09:03;;;;;;;10.95;4.95;;;;;;;;;;5053528;28;20029;-68
2022/08/04 05:11:42;;;;;;;12.10;4.85;;;;;;;;;;5052191;28;20082;-68
2022/08/04 05:14:33;;;;;;;9.55;4.72;;;;;;;;;;5042099;28;20540;-68
2022/08/04 05:16:58;;;;;;;;;;;;;;;;;;5029253;28;20072;-70
2022/08/04 05:19:41;;;;;;;12.00;4.65;;;;;;;;;;5040462;28;19963;-65
2022/08/04 05:22:21;;;;;;;10.82;4.82;;;;;;;;;;5031464;28;20536;-67
2022/08/04 05:24:52;;;;;;;31.80;9.95;;;;;;;;;;5034231;28;20029;-67
2022/08/04 05:27:27;;;;;;;16.15;4.72;;;;;;;;;;5034320;28;20055;-70
2022/08/04 05:29:57;;;;;;;11.23;4.88;;;;;;;;;;5041338;28;20471;-67
2022/08/04 05:32:28;;;;;;;14.18;5.43;;;;;;;;;;5052259;28;20082;-67
2022/08/04 05:35:07;;;;;;;8.00;5.05;;;;;;;;;;5038417;28;20042;-70
2022/08/04 05:37:36;;;;;;;14.43;5.68;;;;;;;;;;5032625;28;20040;-69
2022/08/04 05:40:05;;;;;;;13.45;5.50;;;;;;;;;;5041717;28;20033;-70
2022/08/04 05:42:33;;;;;;;11.15;4.78;;;;;;;;;;5052371;28;20408;-68
2022/08/04 05:44:59;;;;;;;14.82;5.63;;;;;;;;;;5038011;28;20082;-65
2022/08/04 05:47:26;;;;;;;12.95;5.13;;;;;;;;;;5033039;28;20116;-67
2022/08/04 05:49:54;;;;;;;9.13;4.70;;;;;;;;;;5041354;28;20036;-69
2022/08/04 05:52:21;;;;;;;13.45;5.10;;;;;;;;;;5051301;28;20083;-68
2022/08/04 05:54:48;;;;;;;11.25;5.18;;;;;;;;;;5037761;28;20120;-68
2022/08/04 05:57:14;;;;;;;12.75;5.00;;;;;;;;;;5031193;28;20510;-67
2022/08/04 05:59:45;;;;;;;8.57;4.80;;;;;;;;;;5016285;28;20045;-71
2022/08/04 06:02:14;;;;;;;10.05;4.45;;;;;;;;;;5045388;28;20065;-65
2022/08/04 06:04:42;;;;;;;11.43;5.10;;;;;;;;;;5051260;28;20033;-65
2022/08/04 06:07:10;;;;;;;13.00;5.07;;;;;;;;;;5051455;28;20082;-68
2022/08/04 06:09:36;;;;;;;10.07;4.60;;;;;;;;;;5041402;28;20053;-67
2022/08/04 06:12:05;;;;;;;11.88;4.60;;;;;;;;;;5032486;28;20079;-68
2022/08/04 06:14:41;;;;;;;11.98;5.00;;;;;;;;;;5051946;28;20025;-65
2022/08/04 06:17:10;;;;;;;11.07;4.88;;;;;;;;;;5048303;28;20103;-68
2022/08/04 06:19:38;;;;;;;11.25;5.20;;;;;;;;;;5052093;28;20033;-69
2022/08/04 06:22:05;;;;;;;9.82;4.80;;;;;;;;;;5047326;28;20131;-70
2022/08/04 06:24:34;;;;;;;12.45;4.88;;;;;;;;;;5031343;28;20501;-69
2022/08/04 06:27:00;;;;;;;12.05;4.80;;;;;;;;;;5031733;28;20117;-69
2022/08/04 06:29:39;;;;;;;10.23;4.43;;;;;;;;;;5049742;28;20112;-67
2022/08/04 06:32:12;;;;;;;10.63;4.20;;;;;;;;;;5048717;28;20454;-71
2022/08/04 06:34:39;;;;;;;11.95;4.65;;;;;;;;;;5051802;28;20029;-70
2022/08/04 06:37:06;;;;;;;10.88;4.05;;;;;;;;;;5042565;28;20037;-69
2022/08/04 06:39:33;;;;;;;9.40;3.78;;;;;;;;;;5035448;28;20029;-67
2022/08/04 06:42:00;;;;;;;12.68;4.38;;;;;;;;;;5023967;28;20112;-68
2022/08/04 06:44:27;;;;;;;11.73;4.07;;;;;;;;;;5036015;28;20038;-68
2022/08/04 06:46:53;;;;;;;11.32;4.10;;;;;;;;;;5039947;28;20124;-66
2022/08/04 06:49:21;;;;;;;10.98;4.07;;;;;;;;;;5050734;28;20037;-68
2022/08/04 06:51:48;;;;;;;7.32;3.50;;;;;;;;;;5045790;28;20108;-69
2022/08/04 06:54:13;;;;;;;8.57;3.75;;;;;;;;;;5049529;28;20128;-69
2022/08/04 06:56:42;;;;;;;12.10;3.50;;;;;;;;;;5051125;28;20577;-70
2022/08/04 06:59:08;;;;;;;10.73;3.78;;;;;;;;;;5039782;28;20025;-68
2022/08/04 07:01:35;;;;;;;8.98;3.50;;;;;;;;;;5033827;28;20045;-68
2022/08/04 07:04:01;;;;;;;11.00;3.50;;;;;;;;;;5036924;28;20029;-69
2022/08/04 07:06:26;;;;;;;9.93;3.53;;;;;;;;;;5051325;28;20164;-65
2022/08/04 07:08:53;;;;;;;7.38;3.30;;;;;;;;;;5041472;28;20021;-68
2022/08/04 07:11:20;;;;;;;9.10;3.50;;;;;;;;;;5050014;28;20569;-67
2022/08/04 07:13:46;;;;;;;9.32;3.53;;;;;;;;;;5036879;28;20071;-68
2022/08/04 07:16:14;;;;;;;9.05;3.13;;;;;;;;;;5034669;28;20401;-68
2022/08/04 07:18:39;;;;;;;6.55;2.95;;;;;;;;;;5037177;28;20501;-67
2022/08/04 07:21:05;;;;;;;13.88;3.42;;;;;;;;;;5053403;28;20033;-71
2022/08/04 07:23:31;;;;;;;10.85;3.00;;;;;;;;;;5035707;28;20029;-67
2022/08/04 07:25:57;;;;;;;9.60;3.30;;;;;;;;;;5052303;28;20021;-69
2022/08/04 07:28:27;;;;;;;11.35;3.35;;;;;;;;;;5047482;28;20124;-67
2022/08/04 07:30:54;;;;;;;9.05;3.55;;;;;;;;;;5052020;28;20108;-68
2022/08/04 07:33:20;;;;;;;7.50;3.20;;;;;;;;;;5049528;28;20045;-66
2022/08/04 07:35:50;;;;;;;9.15;3.47;;;;;;;;;;5053420;28;20029;-69
2022/08/04 07:38:16;;;;;;;15.20;3.50;;;;;;;;;;5045424;28;20488;-67
2022/08/04 07:40:41;;;;;;;8.98;3.28;;;;;;;;;;5055092;28;20065;-69
2022/08/04 07:43:08;;;;;;;8.65;3.17;;;;;;;;;;5031614;28;20037;-67
2022/08/04 07:45:34;;;;;;;10.68;3.30;;;;;;;;;;5033727;28;20389;-67
2022/08/04 07:48:02;;;;;;;8.38;3.08;;;;;;;;;;5046013;28;20059;-69
2022/08/04 07:50:28;;;;;;;9.75;3.53;;;;;;;;;;5052988;28;20069;-66
2022/08/04 07:52:54;;;;;;;10.43;3.40;;;;;;;;;;5024843;28;20037;-65
2022/08/04 07:55:20;;;;;;;7.47;3.22;;;;;;;;;;5052897;28;20048;-69
2022/08/04 07:57:46;;;;;;;6.57;2.92;;;;;;;;;;5053656;28;20063;-67
2022/08/04 08:00:13;;;;;;;7.18;2.92;;;;;;;;;;5053697;28;20028;-66
2022/08/04 08:02:40;;;;;;;14.18;3.15;;;;;;;;;;5053225;28;20102;-66
2022/08/04 08:05:08;;;;;;;9.40;3.10;;;;;;;;;;5053812;28;20065;-70
2022/08/04 08:07:34;;;;;;;9.02;2.95;;;;;;;;;;5030186;28;20037;-67
2022/08/04 08:10:00;;;;;;;10.32;2.80;;;;;;;;;;5052860;28;20436;-68
2022/08/04 08:12:26;;;;;;;7.20;3.10;;;;;;;;;;5050480;28;20211;-68
2022/08/04 08:14:51;;;;;;;11.05;3.05;;;;;;;;;;5033658;28;20052;-66
2022/08/04 08:17:17;;;;;;;10.55;2.78;;;;;;;;;;5033109;28;20029;-68
2022/08/04 08:19:42;;;;;;;7.93;2.83;;;;;;;;;;5032626;28;20047;-69
2022/08/04 08:22:10;;;;;;;9.70;3.13;;;;;;;;;;5052395;28;20081;-71
2022/08/04 08:24:36;;;;;;;7.93;2.92;;;;;;;;;;5053105;28;20044;-69
2022/08/04 08:27:03;;;;;;;6.47;3.03;;;;;;;;;;5054135;28;20025;-69
2022/08/04 08:29:29;;;;;;;9.50;2.92;;;;;;;;;;5050059;28;20057;-68
2022/08/04 08:31:55;;;;;;;8.60;2.65;;;;;;;;;;5051454;28;20037;-68
2022/08/04 08:34:21;;;;;;;8.23;2.97;;;;;;;;;;5045809;28;20044;-69
2022/08/04 08:36:56;;;;;;;8.73;2.72;;;;;;;;;;5053056;28;20048;-68
2022/08/04 08:39:27;;;;;;;5.10;2.60;;;;;;;;;;5050170;28;20112;-69
2022/08/04 08:42:18;;;;;;;5.45;2.70;;;;;;;;;;5050309;28;20037;-69
2022/08/04 08:45:03;;;;;;;5.07;2.60;;;;;;;;;;5051563;28;20037;-68
2022/08/04 08:47:45;;;;;;;4.90;2.85;;;;;;;;;;5049420;28;20703;-66
2022/08/04 08:50:35;;;;;;;4.47;2.70;;;;;;;;;;5052442;28;20036;-69
2022/08/04 08:53:44;;;;;;;6.70;2.70;;;;;;;;;;5052192;28;20040;-68
2022/08/04 08:56:33;;;;;;;6.40;2.53;;;;;;;;;;5052051;28;20103;-70
2022/08/04 08:59:14;;;;;;;5.00;2.22;;;;;;;;;;5038174;28;20390;-65
2022/08/04 09:01:47;;;;;;;;;;;;;;;;;;5033334;28;20097;-67
2022/08/04 09:04:25;;;;;;;5.45;2.80;;;;;;;;;;5051750;28;19999;-68
2022/08/04 09:07:09;;;;;;;6.53;2.65;;;;;;;;;;5045998;28;20076;-66
2022/08/04 09:09:53;;;;;;;7.70;2.50;;;;;;;;;;5045384;28;20025;-66
2022/08/04 09:12:26;;;;;;;4.60;2.67;;;;;;;;;;5038795;28;20497;-69
2022/08/04 09:15:17;;;;;;;6.47;2.55;;;;;;;;;;5052070;28;20075;-64
2022/08/04 09:17:57;;;;;;;;;;;;;;;;;;5053343;28;20052;-68
2022/08/04 09:20:26;;;;;;;5.57;2.80;;;;;;;;;;5046245;28;19979;-68
2022/08/04 09:23:12;;;;;;;9.00;3.05;;;;;;;;;;5051512;28;20033;-68
2022/08/04 09:25:47;;;;;;;6.53;2.50;;;;;;;;;;5051902;28;20048;-69
2022/08/04 09:28:23;;;;;;;7.55;2.70;;;;;;;;;;5051828;28;20039;-70
2022/08/04 09:31:09;;;;;;;4.32;2.42;;;;;;;;;;5040220;28;20041;-67
2022/08/04 09:33:38;;;;;;;5.40;2.40;;;;;;;;;;5031143;28;20083;-66
2022/08/04 09:36:12;;;;;;;4.95;2.30;;;;;;;;;;5036063;28;20041;-68
2022/08/04 09:38:40;;;;;;;6.07;2.17;;;;;;;;;;5033284;28;20501;-67
2022/08/04 09:41:36;;;;;;;5.38;2.15;;;;;;;;;;5045112;28;20040;-68
2022/08/04 09:44:24;;;;;;;5.47;2.28;;;;;;;;;;5052912;28;20044;-69
2022/08/04 09:46:56;;;;;;;4.00;1.98;;;;;;;;;;5051686;28;20078;-67
2022/08/04 09:49:33;;;;;;;4.53;2.08;;;;;;;;;;5051679;28;20064;-69
2022/08/04 09:52:05;;;;;;;3.60;2.10;;;;;;;;;;5038125;28;20040;-67
2022/08/04 09:54:45;;;;;;;3.40;2.20;;;;;;;;;;5051279;28;20025;-66
2022/08/04 09:57:14;;;;;;;5.25;2.17;;;;;;;;;;5031803;28;20084;-65
2022/08/04 10:00:04;;;;;;;5.35;2.28;;;;;;;;;;5031634;28;20061;-69
2022/08/04 10:02:33;;;;;;;;;;;;;;;;;;5031798;28;20040;-69
2022/08/04 10:05:01;;;;;;;6.55;2.55;;;;;;;;;;5041148;28;19921;-67
2022/08/04 10:07:38;;;;;;;9.23;2.50;;;;;;;;;;5050952;28;20033;-69
2022/08/04 10:10:09;;;;;;;6.70;2.47;;;;;;;;;;5032521;28;20133;-68
2022/08/04 10:12:54;;;;;;;5.57;2.30;;;;;;;;;;5040361;28;20482;-70
2022/08/04 10:15:20;;;;;;;5.32;2.13;;;;;;;;;;5031179;28;20550;-67
2022/08/04 10:18:04;;;;;;;7.25;2.22;;;;;;;;;;5031096;28;20108;-67
2022/08/04 10:20:56;;;;;;;3.67;2.40;;;;;;;;;;5030780;28;20030;-67
2022/08/04 10:24:06;;;;;;;6.80;2.50;;;;;;;;;;5033283;28;20125;-66
2022/08/04 10:26:53;;;;;;;5.75;2.53;;;;;;;;;;5041906;28;20628;-67
2022/08/04 10:29:36;;;;;;;11.85;2.80;;;;;;;;;;5033044;28;20458;-67
2022/08/04 10:32:13;;;;;;;7.65;2.40;;;;;;;;;;5033866;28;20397;-69
2022/08/04 10:34:58;;;;;;;6.47;2.47;;;;;;;;;;5031359;28;20108;-69
2022/08/04 10:37:30;;;;;;;5.65;2.63;;;;;;;;;;5050736;28;20543;-69
2022/08/04 10:42:59;;;;;;;9.98;2.78;;;;;;;;;;5041156;28;20044;-69
2022/08/04 10:45:56;;;;;;;9.85;3.17;;;;;;;;;;5044293;28;20459;-68
2022/08/04 10:48:35;;;;;;;13.60;3.17;;;;;;;;;;5031035;28;20029;-68
2022/08/04 10:51:21;;;;;;;8.48;3.33;;;;;;;;;;5031639;28;20034;-64
2022/08/04 10:53:56;;;;;;;7.80;2.72;;;;;;;;;;5041764;28;20040;-66
2022/08/04 10:56:31;;;;;;;9.63;3.03;;;;;;;;;;5050452;28;20076;-67
2022/08/04 10:59:03;;;;;;;5.88;2.63;;;;;;;;;;5050801;28;20408;-65
2022/08/04 11:01:40;;;;;;;9.40;2.90;;;;;;;;;;5050581;28;20461;-64
2022/08/04 11:04:24;;;;;;;9.20;2.97;;;;;;;;;;5042366;28;20045;-65
2022/08/04 11:06:51;;;;;;;6.68;2.63;;;;;;;;;;5031462;28;20080;-63
2022/08/04 11:09:20;;;;;;;5.85;2.47;;;;;;;;;;5031349;28;20040;-65
2022/08/04 11:11:53;;;;;;;5.22;2.33;;;;;;;;;;5036840;28;20427;-64
2022/08/04 11:14:30;;;;;;;6.05;2.70;;;;;;;;;;5050186;28;20400;-65
2022/08/04 11:17:07;;;;;;;5.40;2.53;;;;;;;;;;5039837;28;20033;-63
2022/08/04 11:20:10;;;;;;;6.78;2.50;;;;;;;;;;5030420;28;20044;-67
2022/08/04 11:22:41;;;;;;;9.07;2.88;;;;;;;;;;5034612;28;20156;-65
2022/08/04 11:25:21;;;;;;;9.13;3.10;;;;;;;;;;5049229;28;20158;-63
2022/08/04 11:28:12;;;;;;;7.22;2.45;;;;;;;;;;5036373;28;20398;-65
2022/08/04 11:31:03;;;;;;;5.10;2.60;;;;;;;;;;5044821;28;20082;-64
2022/08/04 11:33:33;;;;;;;4.97;2.40;;;;;;;;;;5049673;28;20069;-64
2022/08/04 11:36:30;;;;;;;11.25;2.35;;;;;;;;;;5032089;28;20064;-64
2022/08/04 11:39:03;;;;;;;6.85;2.53;;;;;;;;;;5029294;28;20045;-66
2022/08/04 11:41:48;;;;;;;7.88;2.50;;;;;;;;;;5050204;28;20037;-65
2022/08/04 11:44:31;;;;;;;8.93;2.20;;;;;;;;;;5017523;28;20436;-66
2022/08/04 11:47:02;;;;;;;10.15;2.80;;;;;;;;;;5050985;28;20112;-67
2022/08/04 11:49:53;;;;;;;11.85;2.70;;;;;;;;;;5031333;28;20378;-66
2022/08/04 11:52:20;;;;;;;8.23;2.60;;;;;;;;;;5050267;28;20080;-65
2022/08/04 11:54:48;;;;;;;9.35;2.75;;;;;;;;;;5049790;28;20036;-65
2022/08/04 11:57:14;;;;;;;9.57;2.60;;;;;;;;;;5051110;28;20053;-66
2022/08/04 11:59:41;;;;;;;8.73;2.90;;;;;;;;;;5032200;28;20401;-63
2022/08/04 12:02:09;;;;;;;6.32;2.53;;;;;;;;;;5034424;28;20126;-65
2022/08/04 12:04:53;;;;;;;9.90;2.72;;;;;;;;;;5048659;28;20628;-65
2022/08/04 12:07:40;;;;;;;9.57;2.60;;;;;;;;;;5035577;28;20397;-67
2022/08/04 12:10:29;;;;;;;7.68;2.40;;;;;;;;;;5050641;28;20086;-66
2022/08/04 12:13:16;;;;;;;9.40;2.67;;;;;;;;;;5054405;28;20029;-65
2022/08/04 12:16:12;;;;;;;10.85;2.65;;;;;;;;;;5053100;28;20029;-66
2022/08/04 12:18:53;;;;;;;4.93;2.20;;;;;;;;;;5052413;28;20032;-65
2022/08/04 12:21:36;;;;;;;8.02;2.10;;;;;;;;;;5033812;28;20048;-69
2022/08/04 12:24:12;;;;;;;7.60;2.65;;;;;;;;;;5033202;28;20540;-63
2022/08/04 12:26:43;;;;;;;9.43;2.58;;;;;;;;;;5053106;28;20043;-66
2022/08/04 12:29:13;;;;;;;5.22;2.13;;;;;;;;;;5031158;28;20447;-63
2022/08/04 12:31:45;;;;;;;8.48;2.38;;;;;;;;;;5052861;28;20394;-63
2022/08/04 12:34:34;;;;;;;9.57;2.65;;;;;;;;;;5028291;28;20030;-65
2022/08/04 12:37:28;;;;;;;10.48;2.67;;;;;;;;;;5033629;28;20041;-66
2022/08/04 12:39:59;;;;;;;8.20;2.78;;;;;;;;;;5023981;28;20091;-67
2022/08/04 12:42:57;;;;;;;8.30;2.95;;;;;;;;;;5032995;28;20029;-65
2022/08/04 12:45:23;;;;;;;8.48;2.70;;;;;;;;;;5019969;28;20044;-67
2022/08/04 12:47:52;;;;;;;7.45;2.75;;;;;;;;;;5033398;28;20041;-65
2022/08/04 12:50:19;;;;;;;7.60;2.72;;;;;;;;;;5033755;28;20036;-69
2022/08/04 12:52:52;;;;;;;6.45;2.85;;;;;;;;;;5048775;28;20025;-65
2022/08/04 12:55:20;;;;;;;7.82;2.60;;;;;;;;;;5049128;28;20040;-68
2022/08/04 12:57:48;;;;;;;8.50;2.65;;;;;;;;;;5051172;28;20053;-70
2022/08/04 13:00:24;;;;;;;9.10;2.67;;;;;;;;;;5051311;28;20107;-63
2022/08/04 13:02:51;;;;;;;7.10;2.90;;;;;;;;;;5049404;28;20166;-63
2022/08/04 13:05:19;;;;;;;9.15;2.63;;;;;;;;;;5048708;28;20388;-67
2022/08/04 13:07:49;;;;;;;6.82;2.53;;;;;;;;;;5049377;28;20024;-65
2022/08/04 13:10:18;;;;;;;6.60;2.88;;;;;;;;;;5053120;28;20033;-65
2022/08/04 13:13:02;;;;;;;9.50;3.33;;;;;;;;;;5051124;28;20033;-64
2022/08/04 13:15:32;;;;;;;13.45;3.95;;;;;;;;;;5052065;28;20033;-66
2022/08/04 13:17:58;;;;;;;8.23;4.00;;;;;;;;;;5049443;28;20037;-66
2022/08/04 13:20:50;;;;;;;8.55;3.50;;;;;;;;;;5046457;28;20025;-65
2022/08/04 13:23:17;;;;;;;11.38;3.40;;;;;;;;;;5046531;28;20048;-64
2022/08/04 13:25:45;;;;;;;10.13;4.00;;;;;;;;;;5051308;28;20068;-65
2022/08/04 13:28:15;;;;;;;12.15;3.80;;;;;;;;;;5036961;28;20034;-65
2022/08/04 13:30:44;;;;;;;12.80;3.80;;;;;;;;;;5047763;28;20367;-66
2022/08/04 13:33:10;;;;;;;9.25;3.10;;;;;;;;;;5052721;28;20025;-64
2022/08/04 13:35:43;;;;;;;9.32;2.70;;;;;;;;;;5050716;28;20033;-66
2022/08/04 13:38:13;;;;;;;4.90;2.92;;;;;;;;;;5052777;28;20036;-66
2022/08/04 13:40:42;;;;;;;8.18;2.90;;;;;;;;;;5047986;28;20124;-66
2022/08/04 13:43:09;;;;;;;5.15;2.78;;;;;;;;;;5031786;28;20034;-63
2022/08/04 13:45:37;;;;;;;9.82;2.90;;;;;;;;;;5030897;28;20047;-65
2022/08/04 13:48:03;;;;;;;7.10;3.08;;;;;;;;;;5043850;28;20478;-65
2022/08/04 13:50:31;;;;;;;6.63;2.90;;;;;;;;;;5033411;28;20059;-66
2022/08/04 13:52:58;;;;;;;10.50;3.25;;;;;;;;;;5052035;28;20533;-65
2022/08/04 13:55:33;;;;;;;6.97;2.90;;;;;;;;;;5048536;28;20037;-66
2022/08/04 13:58:07;;;;;;;6.75;3.05;;;;;;;;;;5032270;28;20520;-63
2022/08/04 14:00:45;;;;;;;5.70;2.70;;;;;;;;;;5034924;28;20036;-65
2022/08/04 14:03:19;;;;;;;14.38;3.08;;;;;;;;;;5044997;28;20040;-66
2022/08/04 14:06:06;;;;;;;5.05;2.92;;;;;;;;;;5049757;28;20039;-69
2022/08/04 14:08:42;;;;;;;6.82;2.75;;;;;;;;;;5038962;28;20034;-69
2022/08/04 14:11:08;;;;;;;7.95;2.63;;;;;;;;;;5037747;28;20053;-70
2022/08/04 14:13:34;;;;;;;5.93;2.60;;;;;;;;;;5051026;28;20075;-70
2022/08/04 14:16:00;;;;;;;9.18;2.88;;;;;;;;;;5033915;28;20030;-69
2022/08/04 14:18:27;;;;;;;9.63;2.55;;;;;;;;;;5013829;28;20029;-68
2022/08/04 14:21:11;;;;;;;5.60;2.35;;;;;;;;;;5046782;28;20043;-69
2022/08/04 14:23:42;;;;;;;13.45;3.47;;;;;;;;;;5041204;28;20041;-69
2022/08/04 14:26:29;;;;;;;9.20;2.85;;;;;;;;;;5014892;28;20083;-70
2022/08/04 14:29:05;;;;;;;7.60;2.65;;;;;;;;;;5041241;28;20505;-69
2022/08/04 14:31:30;;;;;;;8.15;2.55;;;;;;;;;;5050920;28;20350;-68
2022/08/04 14:33:56;;;;;;;8.05;2.63;;;;;;;;;;5035872;28;20043;-71
2022/08/04 14:36:21;;;;;;;8.65;2.60;;;;;;;;;;5038724;28;20037;-70
2022/08/04 14:38:54;;;;;;;5.95;2.40;;;;;;;;;;5045610;28;20481;-72
2022/08/04 14:41:25;;;;;;;9.85;2.42;;;;;;;;;;5051553;28;20033;-71
2022/08/04 14:43:55;;;;;;;5.07;2.28;;;;;;;;;;5046380;28;20087;-70
2022/08/04 14:46:23;;;;;;;7.68;2.22;;;;;;;;;;5032928;28;20057;-71
2022/08/04 14:49:03;;;;;;;8.68;2.30;;;;;;;;;;5044916;28;20075;-69
2022/08/04 14:51:39;;;;;;;9.60;2.58;;;;;;;;;;5046364;28;20045;-70
2022/08/04 14:54:04;;;;;;;6.95;2.63;;;;;;;;;;5046036;28;20143;-65
2022/08/04 14:56:31;;;;;;;7.10;2.42;;;;;;;;;;5050428;28;20057;-66
2022/08/04 14:58:59;;;;;;;6.18;2.58;;;;;;;;;;5035558;28;20029;-65
2022/08/04 15:01:26;;;;;;;6.38;2.30;;;;;;;;;;5030508;28;20083;-66
2022/08/04 15:03:53;;;;;;;9.95;2.72;;;;;;;;;;5041571;28;20064;-65
2022/08/04 15:06:29;;;;;;;6.15;2.38;;;;;;;;;;5037229;28;20061;-65
2022/08/04 15:08:57;;;;;;;7.30;2.50;;;;;;;;;;5043660;28;20459;-65
2022/08/04 15:11:23;;;;;;;8.43;2.30;;;;;;;;;;5036711;28;20120;-65
2022/08/04 15:13:50;;;;;;;4.25;2.13;;;;;;;;;;5030788;28;20109;-65
2022/08/04 15:16:15;;;;;;;9.00;2.33;;;;;;;;;;5047792;28;20037;-65
2022/08/04 15:18:40;;;;;;;4.47;2.25;;;;;;;;;;5046553;28;20033;-65
2022/08/04 15:21:07;;;;;;;5.57;2.25;;;;;;;;;;5037319;28;20044;-65
2022/08/04 15:23:33;;;;;;;7.10;2.15;;;;;;;;;;5035482;28;20041;-65
2022/08/04 15:26:02;;;;;;;6.80;2.50;;;;;;;;;;5032360;28;20037;-64
2022/08/04 15:28:29;;;;;;;8.15;2.28;;;;;;;;;;5040417;28;20025;-66